createdAt,value
2018-08-25T00:00:30.496Z,988.35
2018-08-25T00:01:30.617Z,988.32
2018-08-25T00:02:30.717Z,988.34
2018-08-25T00:03:30.817Z,988.40
2018-08-25T00:04:30.915Z,988.42
2018-08-25T00:05:31.013Z,988.40
2018-08-25T00:06:31.110Z,988.38
2018-08-25T00:07:31.205Z,988.42
2018-08-25T00:08:31.298Z,988.38
2018-08-25T00:09:31.396Z,988.37
2018-08-25T00:10:31.480Z,988.39
2018-08-25T00:11:31.570Z,988.34
2018-08-25T00:12:31.664Z,988.31
2018-08-25T00:13:31.765Z,988.32
2018-08-25T00:14:31.856Z,988.31
2018-08-25T00:15:31.966Z,988.30
2018-08-25T00:16:32.063Z,988.28
2018-08-25T00:17:32.153Z,988.24
2018-08-25T00:18:32.249Z,988.25
2018-08-25T00:19:32.333Z,988.23
2018-08-25T00:20:32.430Z,988.28
2018-08-25T00:21:32.523Z,988.24
2018-08-25T00:22:32.622Z,988.19
2018-08-25T00:23:32.745Z,988.22
2018-08-25T00:24:32.847Z,988.18
2018-08-25T00:25:32.945Z,988.16
2018-08-25T00:26:33.053Z,988.16
2018-08-25T00:27:33.159Z,988.17
2018-08-25T00:28:33.264Z,988.21
2018-08-25T00:29:33.359Z,988.17
2018-08-25T00:30:33.455Z,988.18
2018-08-25T00:31:33.554Z,988.18
2018-08-25T00:32:33.669Z,988.14
2018-08-25T00:33:33.764Z,988.12
2018-08-25T00:34:33.840Z,988.11
2018-08-25T00:35:33.938Z,988.09
2018-08-25T00:36:34.052Z,988.10
2018-08-25T00:37:34.157Z,988.06
2018-08-25T00:38:34.266Z,988.05
2018-08-25T00:39:34.360Z,988.04
2018-08-25T00:40:34.453Z,988.08
2018-08-25T00:41:34.547Z,988.14
2018-08-25T00:42:34.646Z,988.12
2018-08-25T00:43:34.746Z,988.10
2018-08-25T00:44:34.844Z,988.11
2018-08-25T00:45:34.953Z,988.11
2018-08-25T00:46:35.041Z,988.12
2018-08-25T00:47:35.192Z,988.05
2018-08-25T00:48:35.250Z,988.03
2018-08-25T00:49:35.336Z,988.00
2018-08-25T00:50:35.428Z,988.02
2018-08-25T00:51:35.525Z,987.97
2018-08-25T00:52:35.612Z,987.93
2018-08-25T00:53:35.715Z,987.90
2018-08-25T00:54:35.813Z,987.94
2018-08-25T00:55:35.911Z,987.89
2018-08-25T00:56:36.010Z,987.91
2018-08-25T00:57:36.100Z,987.90
2018-08-25T00:58:36.198Z,987.89
2018-08-25T00:59:36.298Z,987.88
2018-08-25T01:00:36.392Z,987.89
2018-08-25T01:01:36.493Z,987.86
2018-08-25T01:02:36.574Z,987.88
2018-08-25T01:03:36.694Z,987.89
2018-08-25T01:04:36.794Z,987.86
2018-08-25T01:05:36.886Z,987.81
2018-08-25T01:06:36.985Z,987.81
2018-08-25T01:07:37.081Z,987.76
2018-08-25T01:08:37.176Z,987.75
2018-08-25T01:09:37.269Z,987.72
2018-08-25T01:10:37.364Z,987.73
2018-08-25T01:11:37.464Z,987.74
2018-08-25T01:12:37.565Z,987.75
2018-08-25T01:13:37.662Z,987.75
2018-08-25T01:14:37.758Z,987.72
2018-08-25T01:15:37.917Z,987.72
2018-08-25T01:16:37.959Z,987.75
2018-08-25T01:17:38.057Z,987.75
2018-08-25T01:18:38.163Z,987.78
2018-08-25T01:19:38.265Z,987.79
2018-08-25T01:20:38.367Z,987.78
2018-08-25T01:21:38.471Z,987.75
2018-08-25T01:22:38.577Z,987.76
2018-08-25T01:23:38.670Z,987.76
2018-08-25T01:24:38.769Z,987.73
2018-08-25T01:25:38.867Z,987.72
2018-08-25T01:26:38.964Z,987.70
2018-08-25T01:27:39.060Z,987.68
2018-08-25T01:28:39.157Z,987.68
2018-08-25T01:29:39.274Z,987.61
2018-08-25T01:30:39.372Z,987.66
2018-08-25T01:31:39.455Z,987.72
2018-08-25T01:32:39.546Z,987.67
2018-08-25T01:33:39.650Z,987.63
2018-08-25T01:34:39.761Z,987.63
2018-08-25T01:35:39.856Z,987.65
2018-08-25T01:36:39.954Z,987.60
2018-08-25T01:37:40.060Z,987.59
2018-08-25T01:38:40.161Z,987.63
2018-08-25T01:39:40.246Z,987.63
2018-08-25T01:40:40.356Z,987.64
2018-08-25T01:41:40.453Z,987.61
2018-08-25T01:42:40.548Z,987.62
2018-08-25T01:43:40.652Z,987.63
2018-08-25T01:44:40.746Z,987.61
2018-08-25T01:45:40.846Z,987.63
2018-08-25T01:46:40.941Z,987.62
2018-08-25T01:47:41.034Z,987.56
2018-08-25T01:48:41.141Z,987.56
2018-08-25T01:49:41.233Z,987.53
2018-08-25T01:50:41.328Z,987.53
2018-08-25T01:51:41.426Z,987.53
2018-08-25T01:52:41.527Z,987.51
2018-08-25T01:53:41.629Z,987.54
2018-08-25T01:54:41.728Z,987.53
2018-08-25T01:55:41.823Z,987.54
2018-08-25T01:56:41.923Z,987.55
2018-08-25T01:57:42.017Z,987.54
2018-08-25T01:58:42.110Z,987.52
2018-08-25T01:59:42.204Z,987.51
2018-08-25T02:00:42.303Z,987.52
2018-08-25T02:01:42.398Z,987.50
2018-08-25T02:02:42.536Z,987.50
2018-08-25T02:03:42.606Z,987.49
2018-08-25T02:04:42.697Z,987.51
2018-08-25T02:05:42.794Z,987.48
2018-08-25T02:06:42.892Z,987.47
2018-08-25T02:07:42.989Z,987.45
2018-08-25T02:08:43.093Z,987.42
2018-08-25T02:09:43.185Z,987.40
2018-08-25T02:10:43.273Z,987.39
2018-08-25T02:11:43.371Z,987.38
2018-08-25T02:12:43.472Z,987.40
2018-08-25T02:13:43.567Z,987.45
2018-08-25T02:14:43.664Z,987.44
2018-08-25T02:15:43.759Z,987.39
2018-08-25T02:16:43.858Z,987.42
2018-08-25T02:17:43.957Z,987.44
2018-08-25T02:18:44.050Z,987.41
2018-08-25T02:19:44.151Z,987.37
2018-08-25T02:20:44.241Z,987.35
2018-08-25T02:21:44.342Z,987.38
2018-08-25T02:22:44.436Z,987.39
2018-08-25T02:23:44.531Z,987.36
2018-08-25T02:24:44.629Z,987.38
2018-08-25T02:25:44.730Z,987.41
2018-08-25T02:26:44.830Z,987.34
2018-08-25T02:27:44.921Z,987.37
2018-08-25T02:28:45.019Z,987.35
2018-08-25T02:29:45.121Z,987.32
2018-08-25T02:30:45.214Z,987.29
2018-08-25T02:31:45.306Z,987.31
2018-08-25T02:32:45.406Z,987.33
2018-08-25T02:33:45.502Z,987.26
2018-08-25T02:34:45.599Z,987.22
2018-08-25T02:35:45.697Z,987.25
2018-08-25T02:36:45.792Z,987.26
2018-08-25T02:37:45.895Z,987.22
2018-08-25T02:38:46.043Z,987.30
2018-08-25T02:39:46.088Z,987.27
2018-08-25T02:40:46.185Z,987.29
2018-08-25T02:41:46.282Z,987.24
2018-08-25T02:42:46.383Z,987.25
2018-08-25T02:43:46.476Z,987.28
2018-08-25T02:44:46.574Z,987.30
2018-08-25T02:45:46.670Z,987.27
2018-08-25T02:46:46.771Z,987.28
2018-08-25T02:47:46.866Z,987.30
2018-08-25T02:48:46.964Z,987.28
2018-08-25T02:49:47.059Z,987.24
2018-08-25T02:50:47.148Z,987.23
2018-08-25T02:51:47.255Z,987.18
2018-08-25T02:52:47.355Z,987.15
2018-08-25T02:53:47.453Z,987.16
2018-08-25T02:54:47.551Z,987.15
2018-08-25T02:55:47.650Z,987.08
2018-08-25T02:56:47.747Z,987.12
2018-08-25T02:57:47.845Z,987.10
2018-08-25T02:58:47.941Z,987.07
2018-08-25T02:59:48.038Z,987.07
2018-08-25T03:00:48.136Z,987.04
2018-08-25T03:01:48.231Z,987.00
2018-08-25T03:02:48.331Z,987.01
2018-08-25T03:03:48.444Z,986.99
2018-08-25T03:04:48.542Z,987.02
2018-08-25T03:05:48.641Z,986.98
2018-08-25T03:06:48.738Z,987.00
2018-08-25T03:07:48.834Z,986.97
2018-08-25T03:08:48.932Z,986.97
2018-08-25T03:09:49.030Z,987.02
2018-08-25T03:10:49.124Z,986.97
2018-08-25T03:11:49.226Z,987.00
2018-08-25T03:12:49.322Z,987.03
2018-08-25T03:13:49.572Z,987.04
2018-08-25T03:14:49.520Z,987.05
2018-08-25T03:15:49.612Z,987.05
2018-08-25T03:16:49.712Z,987.05
2018-08-25T03:17:49.811Z,987.06
2018-08-25T03:18:49.906Z,987.00
2018-08-25T03:19:50.004Z,987.00
2018-08-25T03:20:50.099Z,986.94
2018-08-25T03:21:50.197Z,986.92
2018-08-25T03:22:50.295Z,986.95
2018-08-25T03:23:50.392Z,986.93
2018-08-25T03:24:50.487Z,986.89
2018-08-25T03:25:50.582Z,986.96
2018-08-25T03:26:50.676Z,986.94
2018-08-25T03:27:50.776Z,986.99
2018-08-25T03:28:50.876Z,986.98
2018-08-25T03:29:50.970Z,987.01
2018-08-25T03:30:51.066Z,986.97
2018-08-25T03:31:51.168Z,986.97
2018-08-25T03:32:51.263Z,986.97
2018-08-25T03:33:51.365Z,987.00
2018-08-25T03:34:51.458Z,986.97
2018-08-25T03:35:51.554Z,986.95
2018-08-25T03:36:51.650Z,986.95
2018-08-25T03:37:51.739Z,986.97
2018-08-25T03:38:51.833Z,986.96
2018-08-25T03:39:51.935Z,986.91
2018-08-25T03:40:52.025Z,986.92
2018-08-25T03:41:52.132Z,986.90
2018-08-25T03:42:52.223Z,986.89
2018-08-25T03:43:52.321Z,986.87
2018-08-25T03:44:52.419Z,986.84
2018-08-25T03:45:52.517Z,986.88
2018-08-25T03:46:52.612Z,986.90
2018-08-25T03:47:52.710Z,986.92
2018-08-25T03:48:52.809Z,986.90
2018-08-25T03:49:52.906Z,986.94
2018-08-25T03:50:53.005Z,986.94
2018-08-25T03:51:53.101Z,986.95
2018-08-25T03:52:53.197Z,986.91
2018-08-25T03:53:53.302Z,986.95
2018-08-25T03:54:53.396Z,986.98
2018-08-25T03:55:53.497Z,986.99
2018-08-25T03:56:53.595Z,987.00
2018-08-25T03:57:53.681Z,987.01
2018-08-25T03:58:53.776Z,986.99
2018-08-25T03:59:53.878Z,986.97
2018-08-25T04:00:53.970Z,986.93
2018-08-25T04:01:54.067Z,986.90
2018-08-25T04:02:54.161Z,986.91
2018-08-25T04:03:54.265Z,986.91
2018-08-25T04:04:54.358Z,986.92
2018-08-25T04:05:54.459Z,986.84
2018-08-25T04:06:54.554Z,986.83
2018-08-25T04:07:54.650Z,986.80
2018-08-25T04:08:54.748Z,986.78
2018-08-25T04:09:54.844Z,986.77
2018-08-25T04:10:54.942Z,986.78
2018-08-25T04:11:55.039Z,986.73
2018-08-25T04:12:55.139Z,986.68
2018-08-25T04:13:55.237Z,986.71
2018-08-25T04:14:55.406Z,986.68
2018-08-25T04:15:55.433Z,986.65
2018-08-25T04:16:55.529Z,986.67
2018-08-25T04:17:55.621Z,986.65
2018-08-25T04:18:55.724Z,986.62
2018-08-25T04:19:55.821Z,986.67
2018-08-25T04:20:55.919Z,986.67
2018-08-25T04:21:56.016Z,986.63
2018-08-25T04:22:56.111Z,986.59
2018-08-25T04:23:56.214Z,986.61
2018-08-25T04:24:56.306Z,986.62
2018-08-25T04:25:56.403Z,986.67
2018-08-25T04:26:56.502Z,986.61
2018-08-25T04:27:56.597Z,986.61
2018-08-25T04:28:56.693Z,986.62
2018-08-25T04:29:56.795Z,986.64
2018-08-25T04:30:56.907Z,986.61
2018-08-25T04:31:57.006Z,986.59
2018-08-25T04:32:57.104Z,986.60
2018-08-25T04:33:57.203Z,986.60
2018-08-25T04:34:57.302Z,986.60
2018-08-25T04:35:57.398Z,986.59
2018-08-25T04:36:57.497Z,986.62
2018-08-25T04:37:57.590Z,986.57
2018-08-25T04:38:57.689Z,986.62
2018-08-25T04:39:57.787Z,986.54
2018-08-25T04:40:57.883Z,986.57
2018-08-25T04:41:57.981Z,986.56
2018-08-25T04:42:58.077Z,986.56
2018-08-25T04:43:58.173Z,986.58
2018-08-25T04:44:58.267Z,986.58
2018-08-25T04:45:58.365Z,986.61
2018-08-25T04:46:58.462Z,986.55
2018-08-25T04:47:58.556Z,986.56
2018-08-25T04:48:58.651Z,986.57
2018-08-25T04:49:58.749Z,986.54
2018-08-25T04:50:58.849Z,986.51
2018-08-25T04:51:58.945Z,986.52
2018-08-25T04:52:59.039Z,986.51
2018-08-25T04:53:59.136Z,986.50
2018-08-25T04:54:59.254Z,986.48
2018-08-25T04:55:59.328Z,986.51
2018-08-25T04:56:59.424Z,986.50
2018-08-25T04:57:59.519Z,986.51
2018-08-25T04:58:59.616Z,986.56
2018-08-25T04:59:59.719Z,986.57
2018-08-25T05:00:59.817Z,986.59
2018-08-25T05:01:59.936Z,986.57
2018-08-25T05:03:00.015Z,986.59
2018-08-25T05:04:00.111Z,986.55
2018-08-25T05:05:00.201Z,986.57
2018-08-25T05:06:00.296Z,986.57
2018-08-25T05:07:00.397Z,986.59
2018-08-25T05:08:00.488Z,986.56
2018-08-25T05:09:00.592Z,986.56
2018-08-25T05:10:00.685Z,986.55
2018-08-25T05:11:00.783Z,986.52
2018-08-25T05:12:00.887Z,986.56
2018-08-25T05:13:00.977Z,986.55
2018-08-25T05:14:01.075Z,986.55
2018-08-25T05:15:01.174Z,986.57
2018-08-25T05:16:01.255Z,986.61
2018-08-25T05:17:01.365Z,986.65
2018-08-25T05:18:02.016Z,986.64
2018-08-25T05:19:01.614Z,986.69
2018-08-25T05:20:01.706Z,986.70
2018-08-25T05:21:01.803Z,986.69
2018-08-25T05:22:01.958Z,986.66
2018-08-25T05:23:01.986Z,986.65
2018-08-25T05:24:02.079Z,986.65
2018-08-25T05:25:02.176Z,986.60
2018-08-25T05:26:02.276Z,986.59
2018-08-25T05:27:02.367Z,986.62
2018-08-25T05:28:02.461Z,986.62
2018-08-25T05:29:02.546Z,986.64
2018-08-25T05:30:02.652Z,986.64
2018-08-25T05:31:02.754Z,986.59
2018-08-25T05:32:02.860Z,986.63
2018-08-25T05:33:02.954Z,986.60
2018-08-25T05:34:03.053Z,986.64
2018-08-25T05:35:03.193Z,986.63
2018-08-25T05:36:03.314Z,986.63
2018-08-25T05:37:03.411Z,986.57
2018-08-25T05:38:03.498Z,986.54
2018-08-25T05:39:03.598Z,986.47
2018-08-25T05:40:03.707Z,986.48
2018-08-25T05:41:03.804Z,986.51
2018-08-25T05:42:03.903Z,986.52
2018-08-25T05:43:04.003Z,986.49
2018-08-25T05:44:04.143Z,986.52
2018-08-25T05:45:04.197Z,986.54
2018-08-25T05:46:04.338Z,986.53
2018-08-25T05:47:04.629Z,986.54
2018-08-25T05:48:04.920Z,986.52
2018-08-25T05:49:04.570Z,986.49
2018-08-25T05:50:04.673Z,986.46
2018-08-25T05:51:04.781Z,986.42
2018-08-25T05:52:04.875Z,986.47
2018-08-25T05:53:04.973Z,986.49
2018-08-25T05:54:05.064Z,986.46
2018-08-25T05:55:05.167Z,986.38
2018-08-25T05:56:05.262Z,986.44
2018-08-25T05:57:05.365Z,986.45
2018-08-25T05:58:05.466Z,986.41
2018-08-25T05:59:05.558Z,986.46
2018-08-25T06:00:05.661Z,986.43
2018-08-25T06:01:05.758Z,986.44
2018-08-25T06:02:05.853Z,986.42
2018-08-25T06:03:05.947Z,986.49
2018-08-25T06:04:06.040Z,986.46
2018-08-25T06:05:06.128Z,986.51
2018-08-25T06:06:06.299Z,986.56
2018-08-25T06:07:06.271Z,986.51
2018-08-25T06:08:06.356Z,986.51
2018-08-25T06:09:06.506Z,986.47
2018-08-25T06:10:06.591Z,986.49
2018-08-25T06:11:06.686Z,986.48
2018-08-25T06:12:06.777Z,986.49
2018-08-25T06:13:06.905Z,986.56
2018-08-25T06:14:07.029Z,986.61
2018-08-25T06:15:07.096Z,986.59
2018-08-25T06:16:07.208Z,986.64
2018-08-25T06:17:07.307Z,986.62
2018-08-25T06:18:07.405Z,986.71
2018-08-25T06:19:07.517Z,986.71
2018-08-25T06:20:07.616Z,986.71
2018-08-25T06:21:07.716Z,986.65
2018-08-25T06:22:07.827Z,986.71
2018-08-25T06:23:07.931Z,986.65
2018-08-25T06:24:08.254Z,986.72
2018-08-25T06:25:08.132Z,986.64
2018-08-25T06:26:08.246Z,986.68
2018-08-25T06:27:08.336Z,986.64
2018-08-25T06:28:08.431Z,986.67
2018-08-25T06:29:08.546Z,986.57
2018-08-25T06:30:08.681Z,986.69
2018-08-25T06:31:08.742Z,986.67
2018-08-25T06:32:08.839Z,986.70
2018-08-25T06:33:08.937Z,986.72
2018-08-25T06:34:09.038Z,986.69
2018-08-25T06:35:09.144Z,986.74
2018-08-25T06:36:09.333Z,986.79
2018-08-25T06:37:09.333Z,986.75
2018-08-25T06:38:09.434Z,986.60
2018-08-25T06:39:09.532Z,986.52
2018-08-25T06:40:09.639Z,986.73
2018-08-25T06:41:09.772Z,986.54
2018-08-25T06:42:09.873Z,986.58
2018-08-25T06:43:09.971Z,986.61
2018-08-25T06:44:10.080Z,986.56
2018-08-25T06:45:10.177Z,986.59
2018-08-25T06:46:10.288Z,986.62
2018-08-25T06:47:10.397Z,986.76
2018-08-25T06:48:10.488Z,986.80
2018-08-25T06:49:10.615Z,986.64
2018-08-25T06:50:10.703Z,986.61
2018-08-25T06:51:10.802Z,986.58
2018-08-25T06:52:10.903Z,986.54
2018-08-25T06:53:11.051Z,986.52
2018-08-25T06:54:11.123Z,986.49
2018-08-25T06:55:11.211Z,986.44
2018-08-25T06:56:11.311Z,986.50
2018-08-25T06:57:11.414Z,986.45
2018-08-25T06:58:11.523Z,986.52
2018-08-25T06:59:11.613Z,986.48
2018-08-25T07:00:11.707Z,986.46
2018-08-25T07:01:11.812Z,986.45
2018-08-25T07:02:11.898Z,986.33
2018-08-25T07:03:12.000Z,986.44
2018-08-25T07:04:12.102Z,986.43
2018-08-25T07:05:12.198Z,986.38
2018-08-25T07:06:12.297Z,986.41
2018-08-25T07:07:12.399Z,986.45
2018-08-25T07:08:12.496Z,986.42
2018-08-25T07:09:12.601Z,986.46
2018-08-25T07:10:12.694Z,986.42
2018-08-25T07:11:12.794Z,986.50
2018-08-25T07:12:12.891Z,986.44
2018-08-25T07:13:13.001Z,986.44
2018-08-25T07:14:13.118Z,986.41
2018-08-25T07:15:13.219Z,986.43
2018-08-25T07:16:13.320Z,986.45
2018-08-25T07:17:13.409Z,986.45
2018-08-25T07:18:13.509Z,986.52
2018-08-25T07:19:13.611Z,986.48
2018-08-25T07:20:13.735Z,986.38
2018-08-25T07:21:13.825Z,986.40
2018-08-25T07:22:13.912Z,986.40
2018-08-25T07:23:14.013Z,986.46
2018-08-25T07:24:14.111Z,986.70
2018-08-25T07:25:14.256Z,986.60
2018-08-25T07:26:14.430Z,986.59
2018-08-25T07:27:14.419Z,986.52
2018-08-25T07:28:14.520Z,986.53
2018-08-25T07:29:14.623Z,986.52
2018-08-25T07:30:14.726Z,986.52
2018-08-25T07:31:14.832Z,986.55
2018-08-25T07:32:15.088Z,986.48
2018-08-25T07:33:15.044Z,986.49
2018-08-25T07:34:15.146Z,986.59
2018-08-25T07:35:15.247Z,986.61
2018-08-25T07:36:15.356Z,986.58
2018-08-25T07:37:15.443Z,986.54
2018-08-25T07:38:15.586Z,986.54
2018-08-25T07:39:15.653Z,986.53
2018-08-25T07:40:15.745Z,986.60
2018-08-25T07:41:15.858Z,986.58
2018-08-25T07:42:15.962Z,986.61
2018-08-25T07:43:16.105Z,986.78
2018-08-25T07:44:16.164Z,986.83
2018-08-25T07:45:16.327Z,986.76
2018-08-25T07:46:16.361Z,986.81
2018-08-25T07:47:16.455Z,986.79
2018-08-25T07:48:16.566Z,986.85
2018-08-25T07:49:16.655Z,986.87
2018-08-25T07:50:16.759Z,986.81
2018-08-25T07:51:16.855Z,986.81
2018-08-25T07:52:16.956Z,986.74
2018-08-25T07:53:17.062Z,986.85
2018-08-25T07:54:17.151Z,986.82
2018-08-25T07:55:17.248Z,986.89
2018-08-25T07:56:17.353Z,986.85
2018-08-25T07:57:17.455Z,986.79
2018-08-25T07:58:17.558Z,986.85
2018-08-25T07:59:17.741Z,986.84
2018-08-25T08:00:17.757Z,986.86
2018-08-25T08:01:17.858Z,986.80
2018-08-25T08:02:17.958Z,986.86
2018-08-25T08:03:18.058Z,986.83
2018-08-25T08:04:18.155Z,986.84
2018-08-25T08:05:18.256Z,986.86
2018-08-25T08:06:18.355Z,986.85
2018-08-25T08:07:18.453Z,986.86
2018-08-25T08:08:18.552Z,986.82
2018-08-25T08:09:18.649Z,986.86
2018-08-25T08:10:18.748Z,986.85
2018-08-25T08:11:18.848Z,986.96
2018-08-25T08:12:19.117Z,986.99
2018-08-25T08:13:19.049Z,986.94
2018-08-25T08:14:19.153Z,986.87
2018-08-25T08:15:19.247Z,986.91
2018-08-25T08:16:19.347Z,986.88
2018-08-25T08:17:19.449Z,986.98
2018-08-25T08:18:19.536Z,986.92
2018-08-25T08:19:19.632Z,986.93
2018-08-25T08:20:19.734Z,986.91
2018-08-25T08:21:19.836Z,986.93
2018-08-25T08:22:19.932Z,986.88
2018-08-25T08:23:20.034Z,986.93
2018-08-25T08:24:20.137Z,986.87
2018-08-25T08:25:20.230Z,986.84
2018-08-25T08:26:20.328Z,986.85
2018-08-25T08:27:20.425Z,986.83
2018-08-25T08:28:20.523Z,986.84
2018-08-25T08:29:20.621Z,986.76
2018-08-25T08:30:20.726Z,986.78
2018-08-25T08:31:20.831Z,986.83
2018-08-25T08:32:20.928Z,986.79
2018-08-25T08:33:21.028Z,986.79
2018-08-25T08:34:21.131Z,986.85
2018-08-25T08:35:21.226Z,986.83
2018-08-25T08:36:21.326Z,986.90
2018-08-25T08:37:21.424Z,986.96
2018-08-25T08:38:21.543Z,986.98
2018-08-25T08:39:21.689Z,986.94
2018-08-25T08:40:21.739Z,986.89
2018-08-25T08:41:21.839Z,986.88
2018-08-25T08:42:22.029Z,986.97
2018-08-25T08:43:22.035Z,986.93
2018-08-25T08:44:22.135Z,986.98
2018-08-25T08:45:22.292Z,986.93
2018-08-25T08:46:22.353Z,986.93
2018-08-25T08:47:22.476Z,987.00
2018-08-25T08:48:22.551Z,986.99
2018-08-25T08:49:22.653Z,987.04
2018-08-25T08:50:22.783Z,987.03
2018-08-25T08:51:22.844Z,986.99
2018-08-25T08:52:22.967Z,986.93
2018-08-25T08:53:23.062Z,986.90
2018-08-25T08:54:23.162Z,986.93
2018-08-25T08:55:23.259Z,986.90
2018-08-25T08:56:23.367Z,986.99
2018-08-25T08:57:23.467Z,986.98
2018-08-25T08:58:23.662Z,987.06
2018-08-25T08:59:23.680Z,987.07
2018-08-25T09:00:23.779Z,987.05
2018-08-25T09:01:23.882Z,987.03
2018-08-25T09:02:23.985Z,987.08
2018-08-25T09:03:24.096Z,987.04
2018-08-25T09:04:24.177Z,987.06
2018-08-25T09:05:24.277Z,987.05
2018-08-25T09:06:24.389Z,987.05
2018-08-25T09:07:24.487Z,987.08
2018-08-25T09:08:24.588Z,987.06
2018-08-25T09:09:24.687Z,987.06
2018-08-25T09:10:24.789Z,987.11
2018-08-25T09:11:24.950Z,987.03
2018-08-25T09:12:24.985Z,987.07
2018-08-25T09:13:25.099Z,987.08
2018-08-25T09:14:25.197Z,987.06
2018-08-25T09:15:25.294Z,987.04
2018-08-25T09:16:25.393Z,987.07
2018-08-25T09:17:25.493Z,987.11
2018-08-25T09:18:25.592Z,987.03
2018-08-25T09:19:25.737Z,987.04
2018-08-25T09:20:25.808Z,987.09
2018-08-25T09:23:57.990Z,987.09
2018-08-25T09:24:58.089Z,987.07
2018-08-25T09:25:58.190Z,987.08
2018-08-25T09:26:58.285Z,987.09
2018-08-25T09:27:58.381Z,987.13
2018-08-25T09:28:58.476Z,987.12
2018-08-25T09:29:58.575Z,987.16
2018-08-25T09:30:58.676Z,987.20
2018-08-25T09:31:58.774Z,987.29
2018-08-25T09:32:58.872Z,987.20
2018-08-25T09:33:58.971Z,987.16
2018-08-25T09:34:59.066Z,987.18
2018-08-25T09:35:59.269Z,987.21
2018-08-25T09:36:59.427Z,987.13
2018-08-25T09:37:59.360Z,987.18
2018-08-25T09:38:59.463Z,987.19
2018-08-25T09:39:59.555Z,987.18
2018-08-25T09:40:59.654Z,987.13
2018-08-25T09:41:59.754Z,987.14
2018-08-25T09:42:59.854Z,987.18
2018-08-25T09:43:59.953Z,987.15
2018-08-25T09:45:00.071Z,987.20
2018-08-25T09:46:00.156Z,987.12
2018-08-25T09:47:00.266Z,987.13
2018-08-25T09:48:00.349Z,987.10
2018-08-25T09:49:00.445Z,987.12
2018-08-25T09:50:00.544Z,987.05
2018-08-25T09:51:00.645Z,987.06
2018-08-25T09:52:00.743Z,987.08
2018-08-25T09:53:00.841Z,987.11
2018-08-25T09:54:00.940Z,987.15
2018-08-25T09:55:01.039Z,987.16
2018-08-25T09:56:01.139Z,987.16
2018-08-25T09:57:01.234Z,987.24
2018-08-25T09:58:01.327Z,987.17
2018-08-25T09:59:01.500Z,987.18
2018-08-25T10:00:01.536Z,987.17
2018-08-25T10:01:01.617Z,987.12
2018-08-25T10:02:01.727Z,987.25
2018-08-25T10:03:01.830Z,987.24
2018-08-25T10:04:01.939Z,987.23
2018-08-25T10:05:02.060Z,987.20
2018-08-25T10:06:02.158Z,987.22
2018-08-25T10:07:02.252Z,987.21
2018-08-25T10:08:02.383Z,987.14
2018-08-25T10:09:02.495Z,987.16
2018-08-25T10:10:02.624Z,987.15
2018-08-25T10:11:02.775Z,987.20
2018-08-25T10:12:02.910Z,987.13
2018-08-25T10:13:02.917Z,987.15
2018-08-25T10:14:03.027Z,987.11
2018-08-25T10:15:03.132Z,987.16
2018-08-25T10:16:03.292Z,987.03
2018-08-25T10:17:03.383Z,987.11
2018-08-25T10:18:03.482Z,987.07
2018-08-25T10:19:03.567Z,987.09
2018-08-25T10:20:03.660Z,987.14
2018-08-25T10:21:03.755Z,987.17
2018-08-25T10:22:03.857Z,987.07
2018-08-25T10:23:04.010Z,987.13
2018-08-25T10:24:04.063Z,987.07
2018-08-25T10:25:04.175Z,987.11
2018-08-25T10:26:04.251Z,987.20
2018-08-25T10:27:04.363Z,987.23
2018-08-25T10:28:04.457Z,987.24
2018-08-25T10:29:04.660Z,987.14
2018-08-25T10:30:04.651Z,987.14
2018-08-25T10:31:04.771Z,987.18
2018-08-25T10:32:04.856Z,987.20
2018-08-25T10:33:04.956Z,987.31
2018-08-25T10:34:05.067Z,987.23
2018-08-25T10:35:05.159Z,987.15
2018-08-25T10:36:05.253Z,987.09
2018-08-25T10:37:05.345Z,987.04
2018-08-25T10:38:05.453Z,987.01
2018-08-25T10:39:05.575Z,987.16
2018-08-25T10:40:05.682Z,987.09
2018-08-25T10:41:05.778Z,987.19
2018-08-25T10:42:05.929Z,987.10
2018-08-25T10:43:05.974Z,987.13
2018-08-25T10:44:06.064Z,987.15
2018-08-25T10:45:06.153Z,987.10
2018-08-25T10:46:06.256Z,987.16
2018-08-25T10:47:06.355Z,987.18
2018-08-25T10:48:06.474Z,987.17
2018-08-25T10:49:06.581Z,987.24
2018-08-25T10:50:06.680Z,987.37
2018-08-25T10:51:06.778Z,987.22
2018-08-25T10:52:06.874Z,987.19
2018-08-25T10:53:06.995Z,987.10
2018-08-25T10:54:07.124Z,987.14
2018-08-25T10:55:07.186Z,987.15
2018-08-25T10:56:07.287Z,987.14
2018-08-25T10:57:07.387Z,987.17
2018-08-25T10:58:07.493Z,987.10
2018-08-25T10:59:07.590Z,987.25
2018-08-25T11:00:07.711Z,987.14
2018-08-25T11:01:07.826Z,987.23
2018-08-25T11:02:07.897Z,987.16
2018-08-25T11:03:07.996Z,987.27
2018-08-25T11:04:08.093Z,987.19
2018-08-25T11:05:08.196Z,987.25
2018-08-25T11:06:08.291Z,987.26
2018-08-25T11:07:08.413Z,987.41
2018-08-25T11:08:08.480Z,987.26
2018-08-25T11:09:08.576Z,987.34
2018-08-25T11:10:08.672Z,987.32
2018-08-25T11:11:08.771Z,987.30
2018-08-25T11:12:08.872Z,987.27
2018-08-25T11:13:08.973Z,987.28
2018-08-25T11:14:09.071Z,987.27
2018-08-25T11:15:09.171Z,987.20
2018-08-25T11:16:09.274Z,987.20
2018-08-25T11:17:09.374Z,987.27
2018-08-25T11:18:09.486Z,987.23
2018-08-25T11:19:09.587Z,987.21
2018-08-25T11:20:09.689Z,987.22
2018-08-25T11:21:09.776Z,987.23
2018-08-25T11:22:09.888Z,987.20
2018-08-25T11:23:09.987Z,987.19
2018-08-25T11:24:10.089Z,987.15
2018-08-25T11:25:10.198Z,987.18
2018-08-25T11:26:10.305Z,987.15
2018-08-25T11:27:10.392Z,987.17
2018-08-25T11:28:10.494Z,987.14
2018-08-25T11:29:10.654Z,987.21
2018-08-25T11:30:10.686Z,987.23
2018-08-25T11:31:10.773Z,987.19
2018-08-25T11:32:10.879Z,987.26
2018-08-25T11:33:10.977Z,987.25
2018-08-25T11:34:11.075Z,987.13
2018-08-25T11:35:11.174Z,987.28
2018-08-25T11:36:11.280Z,987.19
2018-08-25T11:37:11.448Z,987.20
2018-08-25T11:38:11.607Z,987.24
2018-08-25T11:39:11.656Z,987.43
2018-08-25T11:40:11.755Z,987.27
2018-08-25T11:41:11.849Z,987.32
2018-08-25T11:42:11.961Z,987.36
2018-08-25T11:43:12.061Z,987.42
2018-08-25T11:44:12.171Z,987.36
2018-08-25T11:45:12.275Z,987.34
2018-08-25T11:46:12.373Z,987.45
2018-08-25T11:47:12.473Z,987.37
2018-08-25T11:48:12.572Z,987.39
2018-08-25T11:49:12.676Z,987.37
2018-08-25T11:50:12.773Z,987.35
2018-08-25T11:51:12.885Z,987.36
2018-08-25T11:52:12.987Z,987.48
2018-08-25T11:53:13.085Z,987.38
2018-08-25T11:54:13.188Z,987.39
2018-08-25T11:55:13.288Z,987.29
2018-08-25T11:56:13.392Z,987.28
2018-08-25T11:57:13.488Z,987.29
2018-08-25T11:58:13.598Z,987.27
2018-08-25T11:59:13.699Z,987.22
2018-08-25T12:00:13.803Z,987.16
2018-08-25T12:01:13.898Z,987.22
2018-08-25T12:02:14.007Z,987.15
2018-08-25T12:03:14.098Z,987.19
2018-08-25T12:04:14.212Z,987.23
2018-08-25T12:05:14.309Z,987.27
2018-08-25T12:06:14.410Z,987.26
2018-08-25T12:07:14.509Z,987.24
2018-08-25T12:08:14.611Z,987.24
2018-08-25T12:09:14.712Z,987.30
2018-08-25T12:10:14.814Z,987.22
2018-08-25T12:11:14.916Z,987.19
2018-08-25T12:12:15.015Z,987.20
2018-08-25T12:13:15.116Z,987.19
2018-08-25T12:14:15.215Z,987.25
2018-08-25T12:15:15.316Z,987.26
2018-08-25T12:16:15.450Z,987.29
2018-08-25T12:17:15.513Z,987.24
2018-08-25T12:18:15.613Z,987.27
2018-08-25T12:19:15.725Z,987.42
2018-08-25T12:20:15.809Z,987.39
2018-08-25T12:21:15.909Z,987.36
2018-08-25T12:22:16.010Z,987.41
2018-08-25T12:23:16.111Z,987.34
2018-08-25T12:24:16.214Z,987.36
2018-08-25T12:25:16.311Z,987.41
2018-08-25T12:26:16.403Z,987.28
2018-08-25T12:27:16.519Z,987.30
2018-08-25T12:28:16.619Z,987.31
2018-08-25T12:29:16.720Z,987.31
2018-08-25T12:30:16.820Z,987.30
2018-08-25T12:31:16.922Z,987.32
2018-08-25T12:32:17.020Z,987.34